Hailey, Oklahoma
Current Conditions -  °F | °C
As of 6:35 AM on Friday 21 Nov 2014 (Local Time) from KCUH Reporting Station
Haze Haze  
Wind Chill: 41°   Ceiling: 700
Heat Index: 41°   Visibility: 5mi
Dew Point: 41°   Wind: 3mph
Humidity: 100%   Direction: 70°ENE
Pressure: 30.08"   Gusts: NA
Location:  36.2329°N, 96.5662°W
Report Text: KCUH 211235Z AUTO 07003KT 5SM BR OVC007 05/05 A3008 RMK AO2
Loading
Personal Weather Stations






























Interactive Weather Map New forecast layout! Learn more

10-Day Weather Forecast

Advertisements
Track Severe Weather on mobile